Time;durP1;ratioP1;P1;durP2;ratioP2;P2;SDS_P1;SDS_P2;PMS_P1;PMS_P2;Temp;Humidity;BMP_temperature;BMP_pressure;BME280_temperature;BME280_humidity;BME280_pressure;Samples;Min_cycle;Max_cycle;Signal;HPM_P1;HPM_P2
2022/01/07 00:00:05;;;;;;;5.80;2.63;;;-0.90;99.90;;;;;;4184274;28;20485;-80
2022/01/07 00:02:07;;;;;;;9.83;2.77;;;-0.90;99.90;;;;;;4185246;28;20483;-79
2022/01/07 00:04:08;;;;;;;9.43;2.83;;;-0.90;99.90;;;;;;4182621;28;20878;-79
2022/01/07 00:06:11;;;;;;;6.37;2.70;;;-0.60;99.90;;;;;;4186004;28;20461;-79
2022/01/07 00:08:16;;;;;;;6.60;2.63;;;-0.90;99.90;;;;;;4190410;28;20471;-79
2022/01/07 00:10:20;;;;;;;6.30;2.50;;;-0.90;99.90;;;;;;4195301;23;20587;-77
2022/01/07 00:12:23;;;;;;;4.77;2.60;;;-0.90;99.90;;;;;;4177867;28;20464;-77
2022/01/07 00:14:25;;;;;;;5.10;2.10;;;-0.90;99.90;;;;;;4180628;28;20519;-78
2022/01/07 00:16:27;;;;;;;6.57;2.60;;;-0.90;99.90;;;;;;4180708;28;20449;-77
2022/01/07 00:18:29;;;;;;;5.77;2.23;;;-0.90;99.90;;;;;;4174633;28;20989;-77
2022/01/07 00:20:30;;;;;;;6.10;2.70;;;-0.90;99.90;;;;;;4176052;28;20497;-78
2022/01/07 00:22:32;;;;;;;6.10;2.93;;;-0.90;99.90;;;;;;4179946;28;20562;-78
2022/01/07 00:24:34;;;;;;;6.00;2.20;;;-0.60;99.90;;;;;;4179852;28;20515;-77
2022/01/07 00:26:36;;;;;;;5.53;2.60;;;-0.90;99.90;;;;;;4180358;28;20457;-78
2022/01/07 00:28:39;;;;;;;5.50;2.20;;;-0.90;99.90;;;;;;4179842;28;20532;-78
2022/01/07 00:30:41;;;;;;;9.27;2.47;;;-0.90;99.90;;;;;;4174633;28;20538;-78
2022/01/07 00:32:43;;;;;;;9.33;2.90;;;-0.90;99.90;;;;;;4180370;28;20466;-78
2022/01/07 00:34:45;;;;;;;7.97;2.10;;;-0.90;99.90;;;;;;4173834;28;20479;-77
2022/01/07 00:36:47;;;;;;;6.23;2.30;;;-0.90;99.90;;;;;;4175542;28;20876;-77
2022/01/07 00:38:48;;;;;;;7.10;2.70;;;-1.00;99.90;;;;;;4176725;28;20468;-77
2022/01/07 00:40:51;;;;;;;6.10;2.67;;;-1.00;99.90;;;;;;4177871;28;20527;-77
2022/01/07 00:42:53;;;;;;;7.30;2.47;;;-1.00;99.90;;;;;;4180030;28;20448;-77
2022/01/07 00:44:56;;;;;;;6.30;2.27;;;-1.00;99.90;;;;;;4175358;28;20928;-77
2022/01/07 00:46:58;;;;;;;6.97;2.37;;;-1.00;99.90;;;;;;4177018;28;20478;-77
2022/01/07 00:49:00;;;;;;;9.10;2.83;;;-0.90;99.90;;;;;;4179232;28;20873;-78
2022/01/07 00:51:02;;;;;;;8.47;2.57;;;-1.00;99.90;;;;;;4178767;28;20997;-78
2022/01/07 00:53:04;;;;;;;6.47;2.67;;;-1.00;99.90;;;;;;4180707;28;20531;-77
2022/01/07 00:55:07;;;;;;;6.20;2.60;;;-1.00;99.90;;;;;;4177309;28;20488;-77
2022/01/07 00:57:09;;;;;;;7.80;2.40;;;-1.00;99.90;;;;;;4183347;28;20457;-78
2022/01/07 00:59:10;;;;;;;8.30;2.27;;;-1.00;99.90;;;;;;4182258;28;20465;-79
2022/01/07 01:01:13;;;;;;;4.80;2.23;;;-1.00;99.90;;;;;;4176925;28;20450;-78
2022/01/07 01:03:15;;;;;;;6.93;2.60;;;-1.00;99.90;;;;;;4176146;28;20461;-78
2022/01/07 01:05:18;;;;;;;7.47;1.77;;;-1.00;99.90;;;;;;4183222;28;20512;-78
2022/01/07 01:07:19;;;;;;;4.40;2.13;;;-1.00;99.90;;;;;;4176373;28;20462;-77
2022/01/07 01:09:21;;;;;;;5.90;2.07;;;-1.00;99.90;;;;;;4179108;28;20827;-77
2022/01/07 01:11:23;;;;;;;4.93;2.27;;;-1.00;99.90;;;;;;4177368;28;20468;-77
2022/01/07 01:13:26;;;;;;;3.40;2.07;;;-1.00;99.90;;;;;;4178348;28;21020;-77
2022/01/07 01:15:28;;;;;;;9.03;2.30;;;-1.00;99.90;;;;;;4179406;28;20905;-77
2022/01/07 01:17:31;;;;;;;3.30;1.70;;;-0.90;99.90;;;;;;4175043;28;20474;-77
2022/01/07 01:19:33;;;;;;;5.55;2.20;;;-0.90;99.90;;;;;;4173249;28;20477;-78
2022/01/07 01:21:36;;;;;;;4.87;2.00;;;-0.90;99.90;;;;;;4176715;28;20627;-78
2022/01/07 01:23:39;;;;;;;5.17;2.00;;;-0.90;99.90;;;;;;4172939;28;20560;-78
2022/01/07 01:25:40;;;;;;;3.27;1.57;;;-0.90;99.90;;;;;;4177870;28;20800;-77
2022/01/07 01:27:42;;;;;;;7.90;2.07;;;-0.90;99.90;;;;;;4177673;28;20515;-78
2022/01/07 01:29:44;;;;;;;5.70;2.20;;;-0.90;99.90;;;;;;4176362;28;20461;-77
2022/01/07 01:31:46;;;;;;;4.53;2.27;;;-1.00;99.90;;;;;;4175471;28;20456;-77
2022/01/07 01:33:49;;;;;;;5.53;2.33;;;-0.90;99.90;;;;;;4176866;28;20457;-78
2022/01/07 01:35:51;;;;;;;8.50;2.40;;;-0.90;99.90;;;;;;4176465;28;20994;-77
2022/01/07 01:37:53;;;;;;;8.13;2.20;;;-0.90;99.90;;;;;;4172376;28;21049;-77
2022/01/07 01:39:55;;;;;;;6.00;2.23;;;-0.90;99.90;;;;;;4174131;28;20532;-77
2022/01/07 01:41:58;;;;;;;5.07;2.10;;;-0.90;99.90;;;;;;4179062;28;20534;-77
2022/01/07 01:44:00;;;;;;;5.80;1.73;;;-0.90;99.90;;;;;;4181057;28;20453;-77
2022/01/07 01:46:02;;;;;;;3.43;1.97;;;-0.90;99.90;;;;;;4179317;28;20460;-77
2022/01/07 01:48:04;;;;;;;2.47;1.80;;;-1.00;99.90;;;;;;4177322;28;20458;-77
2022/01/07 01:50:09;;;;;;;4.50;2.00;;;-1.00;99.90;;;;;;4178328;28;20485;-77
2022/01/07 01:52:10;;;;;;;6.83;2.20;;;-1.00;99.90;;;;;;4179329;28;20487;-77
2022/01/07 01:54:12;;;;;;;3.60;1.80;;;-1.00;99.90;;;;;;4178156;28;20504;-77
2022/01/07 01:56:14;;;;;;;7.10;2.50;;;-1.00;99.90;;;;;;4181562;28;21238;-77
2022/01/07 01:58:16;;;;;;;4.70;2.10;;;-0.90;99.90;;;;;;4186095;28;20472;-77
2022/01/07 02:00:18;;;;;;;5.53;2.30;;;-0.90;99.90;;;;;;4182285;28;20481;-77
2022/01/07 02:02:20;;;;;;;4.87;1.93;;;-1.00;99.90;;;;;;4173878;28;20534;-77
2022/01/07 02:04:21;;;;;;;4.27;1.83;;;-1.00;99.90;;;;;;4183837;28;20461;-77
2022/01/07 02:06:24;;;;;;;5.63;2.20;;;-0.90;99.90;;;;;;4175000;28;20888;-77
2022/01/07 02:08:26;;;;;;;4.63;2.20;;;-1.00;99.90;;;;;;4180373;28;20497;-77
2022/01/07 02:10:28;;;;;;;6.33;2.57;;;-1.00;99.90;;;;;;4176058;28;20485;-77
2022/01/07 02:12:30;;;;;;;5.97;2.30;;;-1.00;99.90;;;;;;4183822;28;20840;-77
2022/01/07 02:14:34;;;;;;;6.87;2.07;;;-1.00;99.90;;;;;;4176097;28;20464;-77
2022/01/07 02:16:35;;;;;;;7.47;2.10;;;-1.00;99.90;;;;;;4180895;28;20503;-77
2022/01/07 02:18:37;;;;;;;5.60;2.00;;;-1.00;99.90;;;;;;4182469;28;20444;-77
2022/01/07 02:20:40;;;;;;;3.93;1.83;;;-1.00;99.90;;;;;;4182354;28;20491;-77
2022/01/07 02:22:42;;;;;;;8.90;2.20;;;-1.00;99.90;;;;;;4182781;28;20457;-77
2022/01/07 02:24:44;;;;;;;7.17;2.30;;;-1.00;99.90;;;;;;4179781;28;21026;-76
2022/01/07 02:26:47;;;;;;;8.53;2.30;;;-1.00;99.90;;;;;;4164733;28;20457;-77
2022/01/07 02:28:50;;;;;;;3.63;2.07;;;-1.00;99.90;;;;;;4172632;28;20476;-77
2022/01/07 02:30:52;;;;;;;3.57;2.00;;;-1.00;99.90;;;;;;4190765;28;20475;-77
2022/01/07 02:32:54;;;;;;;4.07;2.03;;;-1.00;99.90;;;;;;4181592;28;20484;-77
2022/01/07 02:34:55;;;;;;;4.97;2.37;;;-1.00;99.90;;;;;;4180316;28;20539;-77
2022/01/07 02:36:59;;;;;;;4.53;2.60;;;-1.00;99.90;;;;;;4182293;28;20496;-77
2022/01/07 02:39:00;;;;;;;5.17;1.50;;;-1.00;99.90;;;;;;4183290;28;20511;-77
2022/01/07 02:41:02;;;;;;;7.33;2.47;;;-1.00;99.90;;;;;;4184619;28;20901;-77
2022/01/07 02:43:04;;;;;;;6.10;2.03;;;-1.10;99.90;;;;;;4188290;28;20476;-77
2022/01/07 02:45:08;;;;;;;8.47;3.10;;;-1.00;99.90;;;;;;4183007;28;20848;-77
2022/01/07 02:47:10;;;;;;;4.97;2.23;;;-1.00;99.90;;;;;;4180992;28;20488;-77
2022/01/07 02:49:14;;;;;;;6.43;2.30;;;-1.00;99.90;;;;;;4182285;28;20821;-77
2022/01/07 02:51:16;;;;;;;7.00;1.97;;;-1.00;99.90;;;;;;4176330;28;20473;-77
2022/01/07 02:53:19;;;;;;;4.67;2.30;;;-1.00;99.90;;;;;;4190302;28;20453;-77
2022/01/07 02:55:22;;;;;;;5.63;2.20;;;-1.00;99.90;;;;;;4177604;28;21032;-77
2022/01/07 02:57:24;;;;;;;3.80;2.30;;;-1.00;99.90;;;;;;4165643;28;20457;-77
2022/01/07 02:59:26;;;;;;;5.13;2.10;;;-1.10;99.90;;;;;;4165300;28;20453;-77
2022/01/07 03:01:28;;;;;;;7.87;2.10;;;-1.00;99.90;;;;;;4177725;28;20457;-77
2022/01/07 03:03:29;;;;;;;5.90;2.60;;;-1.10;99.90;;;;;;4182155;28;20958;-77
2022/01/07 03:05:31;;;;;;;6.30;2.40;;;-1.10;99.90;;;;;;4180861;28;20452;-77
2022/01/07 03:07:34;;;;;;;5.90;2.63;;;-1.00;99.90;;;;;;4179570;28;20465;-77
2022/01/07 03:09:37;;;;;;;7.68;2.50;;;-1.10;99.90;;;;;;4180843;28;21078;-77
2022/01/07 03:11:39;;;;;;;6.07;2.13;;;-1.00;99.90;;;;;;4175973;28;20626;-77
2022/01/07 03:13:41;;;;;;;8.90;2.83;;;-1.00;99.90;;;;;;4180588;28;20462;-77
2022/01/07 03:15:42;;;;;;;7.50;2.40;;;-1.00;99.90;;;;;;4181814;28;20460;-77
2022/01/07 03:17:44;;;;;;;9.10;2.90;;;-1.00;99.90;;;;;;4175558;28;20903;-77
2022/01/07 03:19:46;;;;;;;5.53;2.57;;;-1.00;99.90;;;;;;4165168;28;20982;-77
2022/01/07 03:21:48;;;;;;;8.77;2.47;;;-1.00;99.90;;;;;;4177621;28;20469;-77
2022/01/07 03:23:50;;;;;;;5.47;2.57;;;-1.00;99.90;;;;;;4182457;28;20935;-77
2022/01/07 03:25:53;;;;;;;6.60;2.80;;;-1.00;99.90;;;;;;4177615;28;20454;-77
2022/01/07 03:27:55;;;;;;;8.90;2.53;;;-1.00;99.90;;;;;;4167832;28;20532;-77
2022/01/07 03:29:57;;;;;;;6.13;2.33;;;-1.00;99.90;;;;;;4167738;28;20554;-77
2022/01/07 03:31:58;;;;;;;6.63;2.50;;;-1.00;99.90;;;;;;4189656;28;20480;-77
2022/01/07 03:34:00;;;;;;;7.03;2.70;;;-1.10;99.90;;;;;;4183746;28;20493;-77
2022/01/07 03:36:03;;;;;;;6.40;2.30;;;-1.00;99.90;;;;;;4166079;28;20839;-77
2022/01/07 03:38:05;;;;;;;7.30;2.87;;;-1.00;99.90;;;;;;4171796;28;20508;-77
2022/01/07 03:40:08;;;;;;;7.27;2.27;;;-1.00;99.90;;;;;;4179040;28;20511;-77
2022/01/07 03:42:11;;;;;;;5.27;2.20;;;-1.00;99.90;;;;;;4181407;28;20962;-77
2022/01/07 03:44:13;;;;;;;5.07;2.50;;;-1.00;99.90;;;;;;4179198;28;20802;-77
2022/01/07 03:46:15;;;;;;;5.23;2.03;;;-1.00;99.90;;;;;;4184976;28;20518;-76
2022/01/07 03:48:16;;;;;;;8.77;2.80;;;-1.00;99.90;;;;;;4185035;28;20449;-77
2022/01/07 03:50:21;;;;;;;6.63;2.50;;;-1.00;99.90;;;;;;4174517;28;20493;-77
2022/01/07 03:52:22;;;;;;;6.80;2.77;;;-1.00;99.90;;;;;;4176309;28;20466;-77
2022/01/07 03:54:24;;;;;;;6.33;2.60;;;-1.00;99.90;;;;;;4188055;28;20454;-77
2022/01/07 03:56:26;;;;;;;5.87;2.67;;;-1.00;99.90;;;;;;4179704;28;20485;-77
2022/01/07 03:58:29;;;;;;;9.23;2.63;;;-1.00;99.90;;;;;;4176680;28;20485;-77
2022/01/07 04:00:34;;;;;;;7.27;2.37;;;-0.90;99.90;;;;;;4167937;28;20536;-77
2022/01/07 04:02:36;;;;;;;6.63;2.40;;;-1.00;99.90;;;;;;4170817;28;20532;-77
2022/01/07 04:04:37;;;;;;;8.00;3.00;;;-0.90;99.90;;;;;;4180379;28;20512;-77
2022/01/07 04:06:39;;;;;;;11.87;2.80;;;-0.90;99.90;;;;;;4188078;28;20457;-77
2022/01/07 04:08:41;;;;;;;5.43;3.13;;;-1.00;99.90;;;;;;4174849;28;20524;-76
2022/01/07 04:10:43;;;;;;;8.43;2.93;;;-0.90;99.90;;;;;;4173167;28;20561;-77
2022/01/07 04:12:44;;;;;;;9.53;3.00;;;-0.90;99.90;;;;;;4180036;28;20961;-77
2022/01/07 04:14:51;;;;;;;5.33;2.50;;;-1.00;99.90;;;;;;4177898;28;20481;-77
2022/01/07 04:16:53;;;;;;;7.40;2.70;;;-0.90;99.90;;;;;;4167038;28;20544;-77
2022/01/07 04:18:55;;;;;;;7.23;2.57;;;-0.90;99.90;;;;;;4177785;28;20461;-77
2022/01/07 04:20:56;;;;;;;6.90;2.90;;;-0.90;99.90;;;;;;4179750;28;20558;-77
2022/01/07 04:22:58;;;;;;;7.87;2.83;;;-0.90;99.90;;;;;;4185466;28;20468;-77
2022/01/07 04:25:00;;;;;;;7.80;2.80;;;-0.90;99.90;;;;;;4196453;28;20452;-77
2022/01/07 04:27:02;;;;;;;5.03;2.60;;;-0.90;99.90;;;;;;4175071;28;20468;-77
2022/01/07 04:29:04;;;;;;;4.33;2.40;;;-0.90;99.90;;;;;;4177413;28;20534;-77
2022/01/07 04:31:07;;;;;;;6.23;2.70;;;-0.90;99.90;;;;;;4179806;28;20485;-76
2022/01/07 04:33:12;;;;;;;6.30;2.40;;;-0.90;99.90;;;;;;4179553;28;20523;-76
2022/01/07 04:35:15;;;;;;;6.47;2.77;;;-0.90;99.90;;;;;;4173890;28;20477;-77
2022/01/07 04:37:18;;;;;;;4.87;2.77;;;-0.90;99.90;;;;;;4180204;28;20493;-77
2022/01/07 04:39:19;;;;;;;7.67;3.17;;;-0.90;99.90;;;;;;4178658;28;20508;-77
2022/01/07 04:41:21;;;;;;;6.40;2.63;;;-0.80;99.90;;;;;;4171475;28;21033;-77
2022/01/07 04:43:23;;;;;;;5.57;2.70;;;-0.80;99.90;;;;;;4174066;28;20474;-77
2022/01/07 04:45:25;;;;;;;7.23;2.87;;;-0.90;99.90;;;;;;4184658;28;20461;-77
2022/01/07 04:47:28;;;;;;;7.83;2.37;;;-0.90;99.90;;;;;;4180254;28;21017;-77
2022/01/07 04:49:30;;;;;;;6.10;2.80;;;-0.90;99.90;;;;;;4180948;28;20453;-76
2022/01/07 04:51:32;;;;;;;5.03;2.10;;;-0.90;99.90;;;;;;4180088;28;20456;-76
2022/01/07 04:53:34;;;;;;;8.27;2.87;;;-0.90;99.90;;;;;;4168363;28;20569;-77
2022/01/07 04:55:37;;;;;;;8.07;2.60;;;-0.90;99.90;;;;;;4180010;28;20481;-77
2022/01/07 04:57:39;;;;;;;7.10;2.83;;;-0.90;99.90;;;;;;4179844;28;20484;-77
2022/01/07 04:59:41;;;;;;;6.67;2.90;;;-0.90;99.90;;;;;;4179226;28;20532;-76
2022/01/07 05:01:43;;;;;;;10.07;3.43;;;-0.80;99.90;;;;;;4179735;28;20934;-76
2022/01/07 05:03:46;;;;;;;9.13;3.17;;;-0.90;99.90;;;;;;4178999;28;21022;-76
2022/01/07 05:05:56;;;;;;;6.80;2.60;;;-0.80;99.90;;;;;;4179112;28;20452;-77
2022/01/07 05:07:58;;;;;;;7.47;3.00;;;-0.80;99.90;;;;;;4183431;28;20449;-77
2022/01/07 05:10:00;;;;;;;6.50;2.90;;;-0.80;99.90;;;;;;4174708;28;20555;-76
2022/01/07 05:12:01;;;;;;;11.50;3.83;;;-0.80;99.90;;;;;;4177604;28;20461;-76
2022/01/07 05:14:03;;;;;;;8.23;3.00;;;-0.80;99.90;;;;;;4172645;28;20499;-77
2022/01/07 05:16:06;;;;;;;8.00;3.53;;;-0.80;99.90;;;;;;4180071;28;20460;-77
2022/01/07 05:18:09;;;;;;;6.83;2.87;;;-0.80;99.90;;;;;;4179730;28;20507;-76
2022/01/07 05:20:14;;;;;;;7.10;3.40;;;-0.70;99.90;;;;;;4179668;28;20575;-77
2022/01/07 05:22:15;;;;;;;9.37;2.97;;;-0.70;99.90;;;;;;4185658;28;20460;-77
2022/01/07 05:24:17;;;;;;;9.77;3.30;;;-0.70;99.90;;;;;;4179982;28;20473;-77
2022/01/07 05:26:19;;;;;;;9.83;3.07;;;-0.70;99.90;;;;;;4179262;28;20518;-76
2022/01/07 05:28:21;;;;;;;8.77;3.13;;;-0.70;99.90;;;;;;4168848;28;20482;-77
2022/01/07 05:30:23;;;;;;;7.77;2.77;;;-0.70;99.90;;;;;;4169503;28;20488;-77
2022/01/07 05:32:25;;;;;;;9.17;3.07;;;-0.60;99.90;;;;;;4179371;28;20836;-77
2022/01/07 05:34:27;;;;;;;9.37;3.63;;;-0.60;99.90;;;;;;4186818;28;20941;-76
2022/01/07 05:36:30;;;;;;;7.73;3.00;;;-0.60;99.90;;;;;;4179057;28;21036;-77
2022/01/07 05:38:31;;;;;;;8.57;3.50;;;-0.60;99.90;;;;;;4173888;28;20958;-77
2022/01/07 05:40:33;;;;;;;9.63;3.37;;;-0.50;99.90;;;;;;4186709;28;20481;-77
2022/01/07 05:42:35;;;;;;;11.53;2.97;;;-0.50;99.90;;;;;;4186075;28;20467;-76
2022/01/07 05:44:37;;;;;;;11.30;3.13;;;-0.50;99.90;;;;;;4180584;28;20805;-76
2022/01/07 05:46:38;;;;;;;13.93;3.20;;;-0.40;99.90;;;;;;4169822;28;20531;-76
2022/01/07 05:48:40;;;;;;;7.80;3.00;;;-0.40;99.90;;;;;;4180846;28;20469;-76
2022/01/07 05:50:42;;;;;;;12.73;3.47;;;-0.40;99.90;;;;;;4180086;28;20477;-76
2022/01/07 05:52:45;;;;;;;10.30;3.20;;;-0.40;99.90;;;;;;4178892;28;20461;-76
2022/01/07 05:54:48;;;;;;;11.03;3.30;;;-0.40;99.90;;;;;;4180214;28;20483;-76
2022/01/07 05:56:50;;;;;;;6.60;3.00;;;-0.30;99.90;;;;;;4188698;28;20538;-75
2022/01/07 05:58:52;;;;;;;14.77;3.10;;;-0.30;99.90;;;;;;4185530;28;20456;-77
2022/01/07 06:00:53;;;;;;;9.57;3.60;;;-0.30;99.90;;;;;;4179597;28;20931;-76
2022/01/07 06:02:55;;;;;;;12.83;3.37;;;-0.20;99.90;;;;;;4185501;28;20479;-77
2022/01/07 06:04:57;;;;;;;12.10;3.40;;;-0.20;99.90;;;;;;4191802;28;20445;-75
2022/01/07 06:06:59;;;;;;;8.20;3.57;;;-0.20;99.90;;;;;;4178754;28;20961;-77
2022/01/07 06:09:02;;;;;;;10.87;3.80;;;-0.10;99.90;;;;;;4177039;28;20973;-75
2022/01/07 06:11:04;;;;;;;9.43;3.23;;;-0.10;99.90;;;;;;4179035;28;21100;-77
2022/01/07 06:13:06;;;;;;;10.90;3.57;;;-0.10;99.90;;;;;;4181102;28;20458;-77
2022/01/07 06:15:08;;;;;;;12.57;3.63;;;-0.10;99.90;;;;;;4179146;28;20984;-77
2022/01/07 06:17:12;;;;;;;9.40;3.47;;;-0.10;99.90;;;;;;4179313;28;21004;-77
2022/01/07 06:19:13;;;;;;;11.37;4.17;;;0.00;99.90;;;;;;4180691;28;20530;-77
2022/01/07 06:21:15;;;;;;;10.80;4.03;;;0.00;99.90;;;;;;4162224;28;20463;-77
2022/01/07 06:23:17;;;;;;;15.57;4.20;;;0.00;99.90;;;;;;4177416;28;20971;-77
2022/01/07 06:25:20;;;;;;;14.10;4.40;;;0.00;99.90;;;;;;4181869;28;20470;-78
2022/01/07 06:27:22;;;;;;;13.77;4.17;;;0.00;99.90;;;;;;4190023;28;20498;-77
2022/01/07 06:29:23;;;;;;;11.63;3.80;;;0.00;99.90;;;;;;4171303;28;21111;-77
2022/01/07 06:31:25;;;;;;;10.80;4.00;;;0.10;99.90;;;;;;4182415;28;20433;-77
2022/01/07 06:33:27;;;;;;;10.87;4.20;;;0.10;99.90;;;;;;4182026;28;20511;-77
2022/01/07 06:35:28;;;;;;;13.07;4.33;;;0.10;99.90;;;;;;4182056;28;20449;-77
2022/01/07 06:37:30;;;;;;;11.73;4.13;;;0.10;99.90;;;;;;4175953;28;20490;-77
2022/01/07 06:39:34;;;;;;;12.37;4.20;;;0.20;99.90;;;;;;4179835;28;22326;-77
2022/01/07 06:41:37;;;;;;;8.40;3.70;;;0.20;99.90;;;;;;4188275;28;20461;-77
2022/01/07 06:43:39;;;;;;;10.00;4.50;;;0.20;99.90;;;;;;4180345;28;20471;-78
2022/01/07 06:45:41;;;;;;;10.17;4.57;;;0.20;99.90;;;;;;4179154;28;20453;-78
2022/01/07 06:47:43;;;;;;;12.90;3.97;;;0.20;99.90;;;;;;4165959;28;21225;-77
2022/01/07 06:49:45;;;;;;;8.77;4.20;;;0.20;99.90;;;;;;4182024;28;20530;-77
2022/01/07 06:51:46;;;;;;;10.90;4.27;;;0.20;99.90;;;;;;4181909;28;20457;-77
2022/01/07 06:53:48;;;;;;;13.97;4.63;;;0.20;99.90;;;;;;4174115;28;20470;-77
2022/01/07 06:55:50;;;;;;;10.17;4.53;;;0.20;99.90;;;;;;4165937;28;20451;-77
2022/01/07 06:57:53;;;;;;;10.20;4.07;;;0.20;99.90;;;;;;4178531;28;20547;-77
2022/01/07 06:59:55;;;;;;;13.10;4.00;;;0.20;99.90;;;;;;4188046;28;20476;-77
2022/01/07 07:01:56;;;;;;;11.43;4.40;;;0.30;99.90;;;;;;4181884;28;20540;-77
2022/01/07 07:03:58;;;;;;;9.93;4.60;;;0.30;99.90;;;;;;4179438;28;20461;-77
2022/01/07 07:06:00;;;;;;;14.07;5.53;;;0.30;99.90;;;;;;4186362;28;20858;-77
2022/01/07 07:08:02;;;;;;;13.73;5.30;;;0.30;99.90;;;;;;4190307;28;20502;-77
2022/01/07 07:10:04;;;;;;;13.23;4.97;;;0.30;99.90;;;;;;4176977;28;20492;-77
2022/01/07 07:12:07;;;;;;;10.13;5.13;;;0.30;99.90;;;;;;4180790;28;20461;-77
2022/01/07 07:14:10;;;;;;;9.60;3.90;;;0.30;99.90;;;;;;4183579;28;20465;-77
2022/01/07 07:16:12;;;;;;;15.07;4.23;;;0.30;99.90;;;;;;4182974;28;20468;-77
2022/01/07 07:18:14;;;;;;;12.50;4.63;;;0.40;99.90;;;;;;4185521;28;20484;-77
2022/01/07 07:20:16;;;;;;;11.07;4.40;;;0.40;99.90;;;;;;4177136;28;20492;-77
2022/01/07 07:22:18;;;;;;;16.63;4.40;;;0.40;99.90;;;;;;4181519;28;20823;-77
2022/01/07 07:24:19;;;;;;;9.57;4.10;;;0.40;99.90;;;;;;4182981;28;20954;-77
2022/01/07 07:26:21;;;;;;;10.37;4.13;;;0.40;99.90;;;;;;4175459;28;20536;-77
2022/01/07 07:28:23;;;;;;;13.47;4.20;;;0.40;99.90;;;;;;4172985;28;20447;-77
2022/01/07 07:30:33;;;;;;;11.60;4.23;;;0.40;99.90;;;;;;4180602;28;20519;-77
2022/01/07 07:32:36;;;;;;;13.60;3.80;;;0.40;99.90;;;;;;4178514;28;21185;-77
2022/01/07 07:34:57;;;;;;;8.40;3.77;;;0.40;99.90;;;;;;4177760;28;20461;-77
2022/01/07 07:36:59;;;;;;;15.23;4.03;;;0.50;99.90;;;;;;4180518;28;20466;-76
2022/01/07 07:39:04;;;;;;;10.27;3.87;;;0.50;99.90;;;;;;4179036;28;20889;-76
2022/01/07 07:41:06;;;;;;;12.07;4.17;;;0.50;99.90;;;;;;4181295;28;20542;-76
2022/01/07 07:43:08;;;;;;;17.43;4.80;;;0.50;99.90;;;;;;4186395;28;20976;-77
2022/01/07 07:45:13;;;;;;;13.53;3.70;;;0.50;99.90;;;;;;4184459;28;20497;-76
2022/01/07 07:47:16;;;;;;;16.73;4.47;;;0.50;99.90;;;;;;4180210;28;20464;-77
2022/01/07 07:49:19;;;;;;;15.83;4.37;;;0.60;99.90;;;;;;4177423;28;20465;-77
2022/01/07 07:51:21;;;;;;;14.83;4.40;;;0.60;99.90;;;;;;4179987;28;20458;-77
2022/01/07 07:53:22;;;;;;;11.70;4.20;;;0.60;99.90;;;;;;4179996;28;20519;-77
2022/01/07 07:55:24;;;;;;;14.23;4.00;;;0.60;99.90;;;;;;4177262;28;20471;-76
2022/01/07 07:57:26;;;;;;;13.43;4.17;;;0.70;99.90;;;;;;4182340;28;20969;-76
2022/01/07 07:59:28;;;;;;;11.63;4.23;;;0.70;99.90;;;;;;4189612;28;20459;-77
2022/01/07 08:01:30;;;;;;;12.70;3.73;;;0.70;99.90;;;;;;4181144;28;20841;-77
2022/01/07 08:03:33;;;;;;;13.77;4.33;;;0.70;99.90;;;;;;4180342;28;20466;-77
2022/01/07 08:05:35;;;;;;;11.50;4.47;;;0.70;99.90;;;;;;4180088;28;20999;-77
2022/01/07 08:07:37;;;;;;;10.37;4.40;;;0.70;99.90;;;;;;4180252;28;20454;-77
2022/01/07 08:09:40;;;;;;;18.23;4.47;;;0.70;99.90;;;;;;4179384;28;20516;-77
2022/01/07 08:11:51;;;;;;;12.03;4.13;;;0.80;99.90;;;;;;4178936;28;20471;-77
2022/01/07 08:16:12;;;;;;;20.63;4.20;;;0.80;99.90;;;;;;4178606;28;20987;-77
2022/01/07 08:18:14;;;;;;;10.20;4.60;;;0.80;99.90;;;;;;4180476;28;20493;-77
2022/01/07 08:20:17;;;;;;;11.80;5.20;;;0.90;99.90;;;;;;4180574;28;20471;-77
2022/01/07 08:22:19;;;;;;;13.10;4.10;;;0.80;99.90;;;;;;4179192;28;20493;-77
2022/01/07 08:24:21;;;;;;;13.93;4.03;;;0.80;99.90;;;;;;4175420;28;20476;-78
2022/01/07 08:26:24;;;;;;;10.93;4.47;;;0.80;99.90;;;;;;4178970;28;20509;-78
2022/01/07 08:28:31;;;;;;;11.30;4.57;;;0.90;99.90;;;;;;4180019;28;20474;-78
2022/01/07 08:30:37;;;;;;;15.07;4.03;;;0.90;99.90;;;;;;4192048;28;20492;-78
2022/01/07 08:34:58;;;;;;;14.30;4.23;;;0.90;99.90;;;;;;4184089;28;20447;-77
2022/01/07 08:37:02;;;;;;;13.30;4.57;;;0.90;99.90;;;;;;4179092;28;20475;-77
2022/01/07 08:39:07;;;;;;;8.73;3.60;;;0.90;99.90;;;;;;4179539;28;20538;-76
2022/01/07 08:41:09;;;;;;;11.73;4.13;;;0.90;99.90;;;;;;4177966;28;20503;-76
2022/01/07 08:43:11;;;;;;;13.03;4.17;;;0.90;99.90;;;;;;4181064;28;20879;-76
2022/01/07 08:45:13;;;;;;;13.73;5.20;;;0.90;99.90;;;;;;4173543;28;20874;-76
2022/01/07 08:47:15;;;;;;;14.63;3.80;;;0.90;99.90;;;;;;4180199;28;20467;-76
2022/01/07 08:49:17;;;;;;;8.07;3.73;;;0.90;99.90;;;;;;4177460;28;20467;-76
2022/01/07 08:51:18;;;;;;;10.33;4.20;;;0.90;99.90;;;;;;4177099;28;20448;-77
2022/01/07 08:53:22;;;;;;;14.57;4.57;;;0.90;99.90;;;;;;4180288;28;20903;-75
2022/01/07 08:55:23;;;;;;;9.67;3.80;;;1.00;99.90;;;;;;4176517;28;20469;-75
2022/01/07 08:57:25;;;;;;;12.27;4.43;;;1.00;99.90;;;;;;4192473;28;20456;-76
2022/01/07 08:59:27;;;;;;;10.77;4.27;;;1.00;99.90;;;;;;4166386;28;20853;-76
2022/01/07 09:01:29;;;;;;;14.13;4.17;;;1.00;99.90;;;;;;4173810;28;20480;-76
2022/01/07 09:03:31;;;;;;;12.10;4.20;;;1.00;99.90;;;;;;4178914;28;21835;-77
2022/01/07 09:05:33;;;;;;;11.70;4.00;;;1.10;99.90;;;;;;4184271;28;20556;-75
2022/01/07 09:07:35;;;;;;;12.90;4.33;;;1.10;99.90;;;;;;4171878;28;20512;-76
2022/01/07 09:09:39;;;;;;;8.77;3.70;;;1.10;99.90;;;;;;4176989;28;20494;-77
2022/01/07 09:11:41;;;;;;;9.57;3.97;;;1.10;99.90;;;;;;4182394;28;20523;-77
2022/01/07 09:13:45;;;;;;;11.50;3.90;;;1.20;99.90;;;;;;4175735;28;20461;-77
2022/01/07 09:15:47;;;;;;;14.93;4.00;;;1.20;99.90;;;;;;4172601;28;20458;-77
2022/01/07 09:17:49;;;;;;;10.80;4.10;;;1.20;99.90;;;;;;4179933;28;20463;-78
2022/01/07 09:19:51;;;;;;;14.77;4.27;;;1.20;99.90;;;;;;4179851;28;20483;-78
2022/01/07 09:21:55;;;;;;;13.90;4.43;;;1.20;99.90;;;;;;4186309;28;20533;-78
2022/01/07 09:23:57;;;;;;;11.47;4.10;;;1.30;99.90;;;;;;4179714;28;20494;-77
2022/01/07 09:26:00;;;;;;;9.87;3.60;;;1.30;99.90;;;;;;4180278;28;20460;-77
2022/01/07 09:28:02;;;;;;;11.13;3.83;;;1.30;99.90;;;;;;4188152;28;20972;-78
2022/01/07 09:30:05;;;;;;;8.70;3.80;;;1.30;99.90;;;;;;4179421;28;20479;-77
2022/01/07 09:32:08;;;;;;;16.00;3.70;;;1.40;99.90;;;;;;4180129;28;20520;-77
2022/01/07 09:34:09;;;;;;;8.77;3.77;;;1.40;99.90;;;;;;4176124;28;20899;-77
2022/01/07 09:36:11;;;;;;;11.93;4.23;;;1.40;99.90;;;;;;4170436;28;20479;-78
2022/01/07 09:38:13;;;;;;;10.87;4.20;;;1.40;99.90;;;;;;4183766;28;20557;-78
2022/01/07 09:40:15;;;;;;;15.37;3.87;;;1.40;99.90;;;;;;4182613;28;20500;-78
2022/01/07 09:42:18;;;;;;;12.10;4.20;;;1.40;99.90;;;;;;4197539;28;20516;-78
2022/01/07 09:44:20;;;;;;;8.37;3.80;;;1.50;99.90;;;;;;4182660;28;20472;-78
2022/01/07 09:46:21;;;;;;;10.17;3.90;;;1.50;99.90;;;;;;4168558;28;20949;-78
2022/01/07 09:48:23;;;;;;;11.40;3.93;;;1.50;99.90;;;;;;4176980;28;20463;-78
2022/01/07 09:50:26;;;;;;;9.33;3.90;;;1.50;99.90;;;;;;4184492;28;20475;-77
2022/01/07 09:52:28;;;;;;;9.03;4.03;;;1.60;99.90;;;;;;4176625;28;20935;-77
2022/01/07 09:54:30;;;;;;;15.00;4.13;;;1.60;99.90;;;;;;4178750;28;20883;-77
2022/01/07 09:56:32;;;;;;;11.70;4.07;;;1.60;99.90;;;;;;4179759;28;20513;-77
2022/01/07 09:58:35;;;;;;;10.70;3.80;;;1.60;99.90;;;;;;4177531;28;20934;-77
2022/01/07 10:00:41;;;;;;;8.43;4.00;;;1.70;99.90;;;;;;4183995;28;20549;-77
2022/01/07 10:03:01;;;;;;;8.40;3.83;;;1.70;99.90;;;;;;4178665;28;20513;-76
2022/01/07 10:05:17;;;;;;;13.10;3.93;;;1.70;99.90;;;;;;4186356;28;20468;-77
2022/01/07 10:07:21;;;;;;;10.17;3.87;;;1.80;99.90;;;;;;4186837;28;20525;-77
2022/01/07 10:09:22;;;;;;;12.33;4.77;;;1.80;99.90;;;;;;4184912;28;20483;-77
2022/01/07 10:11:24;;;;;;;9.60;3.90;;;1.80;99.90;;;;;;4178905;28;20474;-77
2022/01/07 10:13:26;;;;;;;10.97;3.50;;;1.80;99.90;;;;;;4178332;28;20472;-76
2022/01/07 10:15:31;;;;;;;10.67;4.23;;;1.80;99.90;;;;;;4178374;28;20456;-76
2022/01/07 10:17:33;;;;;;;9.37;4.20;;;1.90;99.90;;;;;;4182125;28;20499;-76
2022/01/07 10:19:39;;;;;;;10.77;4.03;;;1.90;99.90;;;;;;4182195;28;20504;-76
2022/01/07 10:21:40;;;;;;;6.60;3.40;;;1.90;99.90;;;;;;4190387;28;20478;-76
2022/01/07 10:23:43;;;;;;;10.40;4.10;;;1.90;99.90;;;;;;4192870;28;20467;-76
2022/01/07 10:25:47;;;;;;;12.53;3.90;;;1.90;99.90;;;;;;4183622;28;20459;-76
2022/01/07 10:27:49;;;;;;;11.17;3.53;;;2.00;99.90;;;;;;4182009;28;20986;-76
2022/01/07 10:29:51;;;;;;;9.43;3.53;;;2.00;99.90;;;;;;4180538;28;20546;-76
2022/01/07 10:32:17;;;;;;;12.50;3.93;;;2.00;99.90;;;;;;4176377;28;20511;-75
2022/01/07 10:34:21;;;;;;;11.50;3.53;;;2.10;99.90;;;;;;4174223;28;20476;-76
2022/01/07 10:36:24;;;;;;;12.40;3.70;;;2.10;99.90;;;;;;4181656;28;20476;-76
2022/01/07 10:38:28;;;;;;;8.50;3.77;;;2.10;99.90;;;;;;4179769;28;20462;-76
2022/01/07 10:40:34;;;;;;;9.77;3.67;;;2.20;99.90;;;;;;4180359;28;20546;-76
2022/01/07 10:42:36;;;;;;;7.07;3.43;;;2.20;99.90;;;;;;4183461;28;20498;-76